sensor_id;sensor_type;location;lat;lon;timestamp;pressure;altitude;pressure_sealevel;temperature;humidity
9521;BME280;4798;41.574;23.734;2022-08-19T00:01:54;95082.53;;;24.07;79.75
9521;BME280;4798;41.574;23.734;2022-08-19T00:04:29;95082.53;;;24.07;78.49
9521;BME280;4798;41.574;23.734;2022-08-19T00:06:58;95082.66;;;24.11;78.64
9521;BME280;4798;41.574;23.734;2022-08-19T00:09:28;95085.63;;;24.06;81.75
9521;BME280;4798;41.574;23.734;2022-08-19T00:11:57;95082.13;;;24.05;81.32
9521;BME280;4798;41.574;23.734;2022-08-19T00:14:28;95080.53;;;24.04;82.14
9521;BME280;4798;41.574;23.734;2022-08-19T00:16:58;95075.63;;;23.49;88.36
9521;BME280;4798;41.574;23.734;2022-08-19T00:19:29;95073.44;;;23.00;94.19
9521;BME280;4798;41.574;23.734;2022-08-19T00:21:58;95084.06;;;22.58;100.00
9521;BME280;4798;41.574;23.734;2022-08-19T00:24:26;95083.34;;;22.77;100.00
9521;BME280;4798;41.574;23.734;2022-08-19T00:26:55;95072.66;;;23.00;100.00
9521;BME280;4798;41.574;23.734;2022-08-19T00:29:44;95073.03;;;22.83;100.00
9521;BME280;4798;41.574;23.734;2022-08-19T00:32:18;95071.22;;;22.87;100.00
9521;BME280;4798;41.574;23.734;2022-08-19T00:34:48;95067.13;;;23.12;100.00
9521;BME280;4798;41.574;23.734;2022-08-19T00:37:18;95065.53;;;22.92;100.00
9521;BME280;4798;41.574;23.734;2022-08-19T00:39:49;95052.75;;;23.08;100.00
9521;BME280;4798;41.574;23.734;2022-08-19T00:42:20;95034.31;;;23.13;99.95
9521;BME280;4798;41.574;23.734;2022-08-19T00:44:49;95050.03;;;22.89;100.00
9521;BME280;4798;41.574;23.734;2022-08-19T00:47:17;95043.13;;;23.10;100.00
9521;BME280;4798;41.574;23.734;2022-08-19T00:49:51;95041.81;;;22.66;100.00
9521;BME280;4798;41.574;23.734;2022-08-19T00:52:23;94978.81;;;21.96;100.00
9521;BME280;4798;41.574;23.734;2022-08-19T00:54:53;95040.31;;;22.53;100.00
9521;BME280;4798;41.574;23.734;2022-08-19T00:57:27;95043.28;;;22.48;100.00
9521;BME280;4798;41.574;23.734;2022-08-19T00:59:58;95043.03;;;22.37;100.00
9521;BME280;4798;41.574;23.734;2022-08-19T01:02:30;95048.06;;;22.54;100.00
9521;BME280;4798;41.574;23.734;2022-08-19T01:05:02;95048.50;;;22.56;100.00
9521;BME280;4798;41.574;23.734;2022-08-19T01:07:32;95059.19;;;22.84;100.00
9521;BME280;4798;41.574;23.734;2022-08-19T01:10:06;95058.44;;;22.52;100.00
9521;BME280;4798;41.574;23.734;2022-08-19T01:12:35;95061.50;;;22.51;100.00
9521;BME280;4798;41.574;23.734;2022-08-19T01:15:06;95065.47;;;22.72;100.00
9521;BME280;4798;41.574;23.734;2022-08-19T01:17:36;95064.88;;;22.79;100.00
9521;BME280;4798;41.574;23.734;2022-08-19T01:20:12;95063.66;;;22.77;100.00
9521;BME280;4798;41.574;23.734;2022-08-19T01:22:45;95064.56;;;22.34;100.00
9521;BME280;4798;41.574;23.734;2022-08-19T01:25:16;95009.69;;;22.14;100.00
9521;BME280;4798;41.574;23.734;2022-08-19T01:27:49;95048.69;;;22.48;100.00
9521;BME280;4798;41.574;23.734;2022-08-19T01:30:21;95037.19;;;22.51;100.00
9521;BME280;4798;41.574;23.734;2022-08-19T01:32:50;95046.66;;;22.60;100.00
9521;BME280;4798;41.574;23.734;2022-08-19T01:35:20;95041.88;;;22.69;100.00
9521;BME280;4798;41.574;23.734;2022-08-19T01:37:54;95058.72;;;22.63;100.00
9521;BME280;4798;41.574;23.734;2022-08-19T01:40:26;95063.06;;;22.67;100.00
9521;BME280;4798;41.574;23.734;2022-08-19T01:42:56;95062.09;;;22.75;100.00
9521;BME280;4798;41.574;23.734;2022-08-19T01:45:26;95073.16;;;22.70;100.00
9521;BME280;4798;41.574;23.734;2022-08-19T01:48:12;95006.81;;;22.23;100.00
9521;BME280;4798;41.574;23.734;2022-08-19T01:50:41;95064.97;;;22.67;100.00
9521;BME280;4798;41.574;23.734;2022-08-19T01:53:11;94917.00;;;21.60;100.00
9521;BME280;4798;41.574;23.734;2022-08-19T01:55:42;95073.44;;;22.65;100.00
9521;BME280;4798;41.574;23.734;2022-08-19T01:58:15;95079.59;;;22.19;100.00
9521;BME280;4798;41.574;23.734;2022-08-19T02:00:45;95070.66;;;22.31;100.00
9521;BME280;4798;41.574;23.734;2022-08-19T02:03:14;95066.47;;;22.02;100.00
9521;BME280;4798;41.574;23.734;2022-08-19T02:05:43;95064.03;;;21.69;100.00
9521;BME280;4798;41.574;23.734;2022-08-19T02:08:14;95059.81;;;21.56;100.00
9521;BME280;4798;41.574;23.734;2022-08-19T02:10:43;95057.50;;;21.98;100.00
9521;BME280;4798;41.574;23.734;2022-08-19T02:13:12;95057.94;;;22.31;100.00
9521;BME280;4798;41.574;23.734;2022-08-19T02:15:40;95054.19;;;22.51;100.00
9521;BME280;4798;41.574;23.734;2022-08-19T02:18:09;95050.31;;;22.52;100.00
9521;BME280;4798;41.574;23.734;2022-08-19T02:20:39;95048.56;;;22.60;98.91
9521;BME280;4798;41.574;23.734;2022-08-19T02:23:09;95037.19;;;22.66;95.86
9521;BME280;4798;41.574;23.734;2022-08-19T02:25:44;95042.22;;;22.68;96.60
9521;BME280;4798;41.574;23.734;2022-08-19T02:28:14;95046.88;;;22.36;100.00
9521;BME280;4798;41.574;23.734;2022-08-19T02:30:45;95057.59;;;22.17;100.00
9521;BME280;4798;41.574;23.734;2022-08-19T02:33:15;95061.34;;;22.44;98.22
9521;BME280;4798;41.574;23.734;2022-08-19T02:35:44;95059.84;;;22.15;100.00
9521;BME280;4798;41.574;23.734;2022-08-19T02:38:13;95046.94;;;22.24;100.00
9521;BME280;4798;41.574;23.734;2022-08-19T02:40:57;95057.34;;;21.79;100.00
9521;BME280;4798;41.574;23.734;2022-08-19T02:43:27;95051.06;;;22.18;100.00
9521;BME280;4798;41.574;23.734;2022-08-19T02:46:00;95052.88;;;22.45;98.82
9521;BME280;4798;41.574;23.734;2022-08-19T02:48:29;95052.03;;;22.10;100.00
9521;BME280;4798;41.574;23.734;2022-08-19T02:50:59;95035.06;;;21.66;100.00
9521;BME280;4798;41.574;23.734;2022-08-19T02:53:28;95061.06;;;21.59;100.00
9521;BME280;4798;41.574;23.734;2022-08-19T02:55:58;95056.72;;;21.70;100.00
9521;BME280;4798;41.574;23.734;2022-08-19T02:58:26;95058.75;;;21.17;100.00
9521;BME280;4798;41.574;23.734;2022-08-19T03:00:56;95067.47;;;20.62;100.00
9521;BME280;4798;41.574;23.734;2022-08-19T03:03:25;95076.34;;;20.26;100.00
9521;BME280;4798;41.574;23.734;2022-08-19T03:06:07;95071.28;;;20.49;100.00
9521;BME280;4798;41.574;23.734;2022-08-19T03:08:36;95076.09;;;20.92;100.00
9521;BME280;4798;41.574;23.734;2022-08-19T03:11:06;95073.72;;;20.90;100.00
9521;BME280;4798;41.574;23.734;2022-08-19T03:13:34;95017.03;;;20.35;100.00
9521;BME280;4798;41.574;23.734;2022-08-19T03:16:05;95077.47;;;20.74;100.00
9521;BME280;4798;41.574;23.734;2022-08-19T03:18:33;95077.34;;;20.70;100.00
9521;BME280;4798;41.574;23.734;2022-08-19T03:21:03;95042.47;;;21.14;100.00
9521;BME280;4798;41.574;23.734;2022-08-19T03:23:32;95030.09;;;21.52;100.00
9521;BME280;4798;41.574;23.734;2022-08-19T03:26:03;95052.84;;;21.83;100.00
9521;BME280;4798;41.574;23.734;2022-08-19T03:28:44;95083.28;;;22.11;100.00
9521;BME280;4798;41.574;23.734;2022-08-19T03:31:26;95074.84;;;22.12;100.00
9521;BME280;4798;41.574;23.734;2022-08-19T03:34:17;95072.41;;;22.23;100.00
9521;BME280;4798;41.574;23.734;2022-08-19T03:36:46;95084.84;;;22.28;100.00
9521;BME280;4798;41.574;23.734;2022-08-19T03:39:15;95088.25;;;22.40;100.00
9521;BME280;4798;41.574;23.734;2022-08-19T03:41:45;95089.28;;;22.51;100.00
9521;BME280;4798;41.574;23.734;2022-08-19T03:44:19;95091.72;;;22.56;100.00
9521;BME280;4798;41.574;23.734;2022-08-19T03:46:50;95099.84;;;22.41;100.00
9521;BME280;4798;41.574;23.734;2022-08-19T03:49:19;95100.44;;;22.34;100.00
9521;BME280;4798;41.574;23.734;2022-08-19T03:51:55;95094.97;;;22.46;100.00
9521;BME280;4798;41.574;23.734;2022-08-19T03:54:25;95107.41;;;22.35;100.00
9521;BME280;4798;41.574;23.734;2022-08-19T03:56:56;95110.09;;;22.35;100.00
9521;BME280;4798;41.574;23.734;2022-08-19T03:59:28;95112.88;;;22.54;100.00
9521;BME280;4798;41.574;23.734;2022-08-19T04:01:59;95101.38;;;22.42;100.00
9521;BME280;4798;41.574;23.734;2022-08-19T04:04:29;95108.00;;;22.60;100.00
9521;BME280;4798;41.574;23.734;2022-08-19T04:06:58;95117.44;;;22.66;100.00
9521;BME280;4798;41.574;23.734;2022-08-19T04:09:26;95097.75;;;22.65;100.00
9521;BME280;4798;41.574;23.734;2022-08-19T04:11:56;95115.44;;;22.79;100.00
9521;BME280;4798;41.574;23.734;2022-08-19T04:14:29;95119.78;;;22.67;100.00
9521;BME280;4798;41.574;23.734;2022-08-19T04:16:59;95093.47;;;22.64;100.00
9521;BME280;4798;41.574;23.734;2022-08-19T04:19:29;95012.66;;;22.25;100.00
9521;BME280;4798;41.574;23.734;2022-08-19T04:21:58;95115.25;;;22.56;100.00
9521;BME280;4798;41.574;23.734;2022-08-19T04:24:27;95133.69;;;22.07;100.00
9521;BME280;4798;41.574;23.734;2022-08-19T04:26:55;95133.63;;;21.64;100.00
9521;BME280;4798;41.574;23.734;2022-08-19T04:29:26;95130.78;;;21.44;100.00
9521;BME280;4798;41.574;23.734;2022-08-19T04:31:55;95133.31;;;21.13;100.00
9521;BME280;4798;41.574;23.734;2022-08-19T04:34:27;95136.22;;;21.20;100.00
9521;BME280;4798;41.574;23.734;2022-08-19T04:36:57;95132.16;;;21.66;100.00
9521;BME280;4798;41.574;23.734;2022-08-19T04:39:28;95142.47;;;21.36;100.00
9521;BME280;4798;41.574;23.734;2022-08-19T04:42:11;95122.13;;;20.87;100.00
9521;BME280;4798;41.574;23.734;2022-08-19T04:45:04;95140.75;;;20.80;100.00
9521;BME280;4798;41.574;23.734;2022-08-19T04:47:38;95126.81;;;21.02;100.00
9521;BME280;4798;41.574;23.734;2022-08-19T04:50:23;95122.69;;;21.72;100.00
9521;BME280;4798;41.574;23.734;2022-08-19T04:52:52;95123.16;;;22.18;100.00
9521;BME280;4798;41.574;23.734;2022-08-19T04:55:22;95139.41;;;22.49;100.00
9521;BME280;4798;41.574;23.734;2022-08-19T04:57:52;95127.69;;;22.60;100.00
9521;BME280;4798;41.574;23.734;2022-08-19T05:00:23;95112.97;;;22.58;100.00
9521;BME280;4798;41.574;23.734;2022-08-19T05:02:51;95145.56;;;22.96;100.00
9521;BME280;4798;41.574;23.734;2022-08-19T05:05:20;95143.66;;;22.97;100.00
9521;BME280;4798;41.574;23.734;2022-08-19T05:07:49;95139.63;;;22.91;100.00
9521;BME280;4798;41.574;23.734;2022-08-19T05:10:18;95143.94;;;22.76;100.00
9521;BME280;4798;41.574;23.734;2022-08-19T05:12:47;95148.25;;;23.12;100.00
9521;BME280;4798;41.574;23.734;2022-08-19T05:15:15;95150.22;;;23.15;100.00
9521;BME280;4798;41.574;23.734;2022-08-19T05:17:47;95138.50;;;23.42;100.00
9521;BME280;4798;41.574;23.734;2022-08-19T05:20:29;95136.66;;;23.65;100.00
9521;BME280;4798;41.574;23.734;2022-08-19T05:23:15;95144.50;;;23.70;100.00
9521;BME280;4798;41.574;23.734;2022-08-19T05:25:49;95147.28;;;23.93;99.88
9521;BME280;4798;41.574;23.734;2022-08-19T05:28:19;95143.19;;;24.02;95.70
9521;BME280;4798;41.574;23.734;2022-08-19T05:30:48;95134.84;;;24.11;91.45
9521;BME280;4798;41.574;23.734;2022-08-19T05:33:22;95131.50;;;24.18;90.23
9521;BME280;4798;41.574;23.734;2022-08-19T05:35:51;95135.63;;;24.31;89.73
9521;BME280;4798;41.574;23.734;2022-08-19T05:38:19;95129.53;;;24.60;87.40
9521;BME280;4798;41.574;23.734;2022-08-19T05:40:48;95131.88;;;24.39;81.53
9521;BME280;4798;41.574;23.734;2022-08-19T05:43:16;95128.19;;;24.73;83.17
9521;BME280;4798;41.574;23.734;2022-08-19T05:45:45;95138.63;;;24.94;80.86
9521;BME280;4798;41.574;23.734;2022-08-19T05:48:14;95134.91;;;25.05;80.67
9521;BME280;4798;41.574;23.734;2022-08-19T05:50:46;95126.25;;;25.22;77.94
9521;BME280;4798;41.574;23.734;2022-08-19T05:53:17;95122.28;;;25.16;81.57
9521;BME280;4798;41.574;23.734;2022-08-19T05:55:46;95092.38;;;25.39;75.08
9521;BME280;4798;41.574;23.734;2022-08-19T05:58:15;95125.47;;;25.81;74.86
9521;BME280;4798;41.574;23.734;2022-08-19T06:00:49;95112.34;;;25.54;77.34
9521;BME280;4798;41.574;23.734;2022-08-19T06:03:18;95126.03;;;25.35;84.15
9521;BME280;4798;41.574;23.734;2022-08-19T06:05:48;95117.88;;;24.79;86.64
9521;BME280;4798;41.574;23.734;2022-08-19T06:08:19;95111.53;;;24.71;89.71
9521;BME280;4798;41.574;23.734;2022-08-19T06:11:16;95126.25;;;24.96;88.94
9521;BME280;4798;41.574;23.734;2022-08-19T06:13:45;95127.25;;;25.41;86.53
9521;BME280;4798;41.574;23.734;2022-08-19T06:16:25;95126.06;;;26.01;81.56
9521;BME280;4798;41.574;23.734;2022-08-19T06:18:55;95122.09;;;26.25;76.62
9521;BME280;4798;41.574;23.734;2022-08-19T06:21:27;95119.22;;;26.11;77.19
9521;BME280;4798;41.574;23.734;2022-08-19T06:23:57;95118.38;;;26.03;78.22
9521;BME280;4798;41.574;23.734;2022-08-19T06:26:26;95110.16;;;26.77;73.12
9521;BME280;4798;41.574;23.734;2022-08-19T06:28:55;95114.06;;;27.37;66.09
9521;BME280;4798;41.574;23.734;2022-08-19T06:31:25;95116.19;;;27.07;64.15
9521;BME280;4798;41.574;23.734;2022-08-19T06:33:54;95121.78;;;26.74;66.16
9521;BME280;4798;41.574;23.734;2022-08-19T06:36:24;95116.25;;;27.14;64.90
9521;BME280;4798;41.574;23.734;2022-08-19T06:39:00;95114.94;;;27.55;61.90
9521;BME280;4798;41.574;23.734;2022-08-19T06:41:29;95114.31;;;27.94;57.32
9521;BME280;4798;41.574;23.734;2022-08-19T06:43:58;95117.22;;;28.54;53.96
9521;BME280;4798;41.574;23.734;2022-08-19T06:46:28;95117.06;;;27.97;53.87
9521;BME280;4798;41.574;23.734;2022-08-19T06:49:01;95095.75;;;28.42;53.62
9521;BME280;4798;41.574;23.734;2022-08-19T06:51:31;95112.16;;;29.05;52.92
9521;BME280;4798;41.574;23.734;2022-08-19T06:54:06;95116.03;;;29.11;49.96
9521;BME280;4798;41.574;23.734;2022-08-19T06:56:45;95109.81;;;29.04;48.18
9521;BME280;4798;41.574;23.734;2022-08-19T06:59:16;95113.34;;;28.93;48.11
9521;BME280;4798;41.574;23.734;2022-08-19T07:01:47;95103.19;;;29.29;49.18
9521;BME280;4798;41.574;23.734;2022-08-19T07:04:18;95102.38;;;29.39;48.31
9521;BME280;4798;41.574;23.734;2022-08-19T07:06:47;95098.00;;;29.56;49.45
9521;BME280;4798;41.574;23.734;2022-08-19T07:09:22;95100.59;;;29.98;47.14
9521;BME280;4798;41.574;23.734;2022-08-19T07:11:52;95097.75;;;30.23;46.32
9521;BME280;4798;41.574;23.734;2022-08-19T07:14:24;95093.38;;;30.91;46.48
9521;BME280;4798;41.574;23.734;2022-08-19T07:16:55;95095.00;;;31.22;44.56
9521;BME280;4798;41.574;23.734;2022-08-19T07:19:26;95060.16;;;30.82;43.11
9521;BME280;4798;41.574;23.734;2022-08-19T07:21:55;95097.97;;;31.76;43.96
9521;BME280;4798;41.574;23.734;2022-08-19T07:24:26;95099.03;;;31.85;41.33
9521;BME280;4798;41.574;23.734;2022-08-19T07:27:00;95100.66;;;31.46;42.28
9521;BME280;4798;41.574;23.734;2022-08-19T07:29:39;95101.25;;;31.97;41.81
9521;BME280;4798;41.574;23.734;2022-08-19T07:32:08;95091.88;;;32.25;41.27
9521;BME280;4798;41.574;23.734;2022-08-19T07:34:39;95092.72;;;32.19;41.92
9521;BME280;4798;41.574;23.734;2022-08-19T07:37:08;95100.34;;;32.34;41.39
9521;BME280;4798;41.574;23.734;2022-08-19T07:39:38;95094.63;;;32.52;40.70
9521;BME280;4798;41.574;23.734;2022-08-19T07:42:10;95087.03;;;32.86;37.92
9521;BME280;4798;41.574;23.734;2022-08-19T07:44:39;95088.47;;;32.71;38.26
9521;BME280;4798;41.574;23.734;2022-08-19T07:47:16;95079.88;;;33.58;35.96
9521;BME280;4798;41.574;23.734;2022-08-19T07:50:06;95085.94;;;33.89;34.57
9521;BME280;4798;41.574;23.734;2022-08-19T07:52:36;95083.03;;;34.16;34.83
9521;BME280;4798;41.574;23.734;2022-08-19T07:55:09;95082.88;;;34.75;33.58
9521;BME280;4798;41.574;23.734;2022-08-19T07:57:58;95078.75;;;33.75;34.99
9521;BME280;4798;41.574;23.734;2022-08-19T08:00:28;95076.63;;;33.63;35.62
9521;BME280;4798;41.574;23.734;2022-08-19T08:02:57;95070.00;;;32.95;37.21
9521;BME280;4798;41.574;23.734;2022-08-19T08:05:25;95072.50;;;33.32;35.50
9521;BME280;4798;41.574;23.734;2022-08-19T08:08:11;95064.97;;;33.16;35.78
9521;BME280;4798;41.574;23.734;2022-08-19T08:10:59;95072.81;;;33.14;35.89
9521;BME280;4798;41.574;23.734;2022-08-19T08:13:28;95070.00;;;33.80;35.73
9521;BME280;4798;41.574;23.734;2022-08-19T08:15:57;95069.84;;;33.48;35.30
9521;BME280;4798;41.574;23.734;2022-08-19T08:18:25;95066.59;;;33.53;35.02
9521;BME280;4798;41.574;23.734;2022-08-19T08:20:57;95062.81;;;33.86;36.33
9521;BME280;4798;41.574;23.734;2022-08-19T08:23:26;95061.63;;;34.75;35.61
9521;BME280;4798;41.574;23.734;2022-08-19T08:25:58;95049.41;;;35.08;34.35
9521;BME280;4798;41.574;23.734;2022-08-19T08:28:27;95054.03;;;36.10;33.79
9521;BME280;4798;41.574;23.734;2022-08-19T08:30:57;95055.03;;;36.16;33.06
9521;BME280;4798;41.574;23.734;2022-08-19T08:33:27;95030.78;;;35.70;32.43
9521;BME280;4798;41.574;23.734;2022-08-19T08:36:01;95051.28;;;36.10;32.18
9521;BME280;4798;41.574;23.734;2022-08-19T08:38:30;95046.00;;;35.46;32.41
9521;BME280;4798;41.574;23.734;2022-08-19T08:41:13;95042.03;;;36.55;31.51
9521;BME280;4798;41.574;23.734;2022-08-19T08:43:48;95034.97;;;36.54;31.74
9521;BME280;4798;41.574;23.734;2022-08-19T08:46:21;95036.38;;;35.38;33.50
9521;BME280;4798;41.574;23.734;2022-08-19T08:49:02;95041.13;;;35.08;33.42
9521;BME280;4798;41.574;23.734;2022-08-19T08:51:40;95030.00;;;35.57;33.59
9521;BME280;4798;41.574;23.734;2022-08-19T08:54:15;95025.25;;;36.62;32.00
9521;BME280;4798;41.574;23.734;2022-08-19T08:56:48;95024.03;;;36.38;33.68
9521;BME280;4798;41.574;23.734;2022-08-19T08:59:21;95022.47;;;36.62;33.64
9521;BME280;4798;41.574;23.734;2022-08-19T09:01:51;95013.50;;;37.17;31.63
9521;BME280;4798;41.574;23.734;2022-08-19T09:04:20;95008.94;;;37.58;30.46
9521;BME280;4798;41.574;23.734;2022-08-19T09:06:54;95002.34;;;38.07;29.58
9521;BME280;4798;41.574;23.734;2022-08-19T09:09:28;95006.19;;;39.08;28.39
9521;BME280;4798;41.574;23.734;2022-08-19T09:12:07;94939.38;;;38.39;28.38
9521;BME280;4798;41.574;23.734;2022-08-19T09:14:45;94981.59;;;38.12;29.13
9521;BME280;4798;41.574;23.734;2022-08-19T09:17:19;94991.47;;;38.62;31.23
9521;BME280;4798;41.574;23.734;2022-08-19T09:19:59;94988.75;;;37.70;29.59
9521;BME280;4798;41.574;23.734;2022-08-19T09:22:35;94972.06;;;36.83;31.02
9521;BME280;4798;41.574;23.734;2022-08-19T09:25:05;94977.09;;;37.53;30.35
9521;BME280;4798;41.574;23.734;2022-08-19T09:27:37;94972.31;;;38.06;29.20
9521;BME280;4798;41.574;23.734;2022-08-19T09:30:12;94969.06;;;38.38;29.24
9521;BME280;4798;41.574;23.734;2022-08-19T09:32:42;94976.22;;;38.66;28.10
9521;BME280;4798;41.574;23.734;2022-08-19T09:35:13;94955.44;;;39.80;26.66
9521;BME280;4798;41.574;23.734;2022-08-19T09:37:42;94957.22;;;39.41;26.77
9521;BME280;4798;41.574;23.734;2022-08-19T09:40:11;94935.84;;;37.98;27.85
9521;BME280;4798;41.574;23.734;2022-08-19T09:42:43;94950.25;;;39.09;28.11
9521;BME280;4798;41.574;23.734;2022-08-19T09:45:17;94953.59;;;38.59;28.28
9521;BME280;4798;41.574;23.734;2022-08-19T09:47:47;94941.81;;;39.04;30.69
9521;BME280;4798;41.574;23.734;2022-08-19T09:50:16;94948.75;;;39.17;26.96
9521;BME280;4798;41.574;23.734;2022-08-19T09:52:45;94947.81;;;39.02;26.31
9521;BME280;4798;41.574;23.734;2022-08-19T09:55:25;94944.75;;;38.91;25.92
9521;BME280;4798;41.574;23.734;2022-08-19T09:58:00;94931.81;;;38.88;26.64
9521;BME280;4798;41.574;23.734;2022-08-19T10:00:29;94934.56;;;39.06;26.65
9521;BME280;4798;41.574;23.734;2022-08-19T10:02:58;94921.81;;;39.87;25.29
9521;BME280;4798;41.574;23.734;2022-08-19T10:05:29;94922.22;;;40.04;26.82
9521;BME280;4798;41.574;23.734;2022-08-19T10:08:17;94911.50;;;40.44;26.97
9521;BME280;4798;41.574;23.734;2022-08-19T10:10:47;94909.88;;;41.23;23.40
9521;BME280;4798;41.574;23.734;2022-08-19T10:13:20;94904.53;;;41.49;20.94
9521;BME280;4798;41.574;23.734;2022-08-19T10:15:54;94900.72;;;40.93;22.32
9521;BME280;4798;41.574;23.734;2022-08-19T10:18:24;94896.94;;;41.78;23.10
9521;BME280;4798;41.574;23.734;2022-08-19T10:21:03;94888.94;;;40.98;22.01
9521;BME280;4798;41.574;23.734;2022-08-19T10:23:35;94895.75;;;41.27;22.30
9521;BME280;4798;41.574;23.734;2022-08-19T10:26:04;94882.91;;;42.02;22.09
9521;BME280;4798;41.574;23.734;2022-08-19T10:28:35;94885.56;;;40.94;20.20
9521;BME280;4798;41.574;23.734;2022-08-19T10:31:06;94876.16;;;42.09;18.58
9521;BME280;4798;41.574;23.734;2022-08-19T10:33:35;94872.75;;;42.54;17.84
9521;BME280;4798;41.574;23.734;2022-08-19T10:36:21;94840.81;;;41.51;20.50
9521;BME280;4798;41.574;23.734;2022-08-19T10:38:52;94869.59;;;41.62;19.90
9521;BME280;4798;41.574;23.734;2022-08-19T10:41:26;94868.94;;;41.38;20.61
9521;BME280;4798;41.574;23.734;2022-08-19T10:44:00;94866.19;;;41.00;20.86
9521;BME280;4798;41.574;23.734;2022-08-19T10:46:31;94870.84;;;41.76;20.03
9521;BME280;4798;41.574;23.734;2022-08-19T10:49:00;94857.31;;;41.40;21.30
9521;BME280;4798;41.574;23.734;2022-08-19T10:51:29;94865.16;;;40.97;19.84
9521;BME280;4798;41.574;23.734;2022-08-19T10:54:16;94849.34;;;41.47;20.16
9521;BME280;4798;41.574;23.734;2022-08-19T10:56:57;94851.00;;;42.03;21.27
9521;BME280;4798;41.574;23.734;2022-08-19T10:59:28;94850.22;;;42.17;22.05
9521;BME280;4798;41.574;23.734;2022-08-19T11:02:05;94792.47;;;42.18;20.65
9521;BME280;4798;41.574;23.734;2022-08-19T11:04:34;94843.44;;;43.56;17.73
9521;BME280;4798;41.574;23.734;2022-08-19T11:07:03;94843.22;;;42.62;16.95
9521;BME280;4798;41.574;23.734;2022-08-19T11:09:37;94833.44;;;42.12;18.05
9521;BME280;4798;41.574;23.734;2022-08-19T11:12:07;94829.88;;;42.92;17.64
9521;BME280;4798;41.574;23.734;2022-08-19T11:14:38;94832.94;;;42.33;18.09
9521;BME280;4798;41.574;23.734;2022-08-19T11:17:07;94826.25;;;41.91;19.18
9521;BME280;4798;41.574;23.734;2022-08-19T11:19:35;94812.09;;;42.89;18.42
9521;BME280;4798;41.574;23.734;2022-08-19T11:22:04;94815.69;;;43.47;18.55
9521;BME280;4798;41.574;23.734;2022-08-19T11:24:36;94819.34;;;43.90;17.32
9521;BME280;4798;41.574;23.734;2022-08-19T11:27:08;94815.25;;;43.54;17.45
9521;BME280;4798;41.574;23.734;2022-08-19T11:29:39;94800.63;;;43.33;17.58
9521;BME280;4798;41.574;23.734;2022-08-19T11:32:09;94805.19;;;43.68;18.49
9521;BME280;4798;41.574;23.734;2022-08-19T11:34:39;94803.31;;;42.96;17.98
9521;BME280;4798;41.574;23.734;2022-08-19T11:37:08;94805.00;;;42.88;18.28
9521;BME280;4798;41.574;23.734;2022-08-19T11:39:36;94790.28;;;41.87;18.66
9521;BME280;4798;41.574;23.734;2022-08-19T11:42:06;94802.53;;;41.16;18.85
9521;BME280;4798;41.574;23.734;2022-08-19T11:44:56;94787.75;;;42.24;18.82
9521;BME280;4798;41.574;23.734;2022-08-19T11:47:24;94785.13;;;43.01;18.21
9521;BME280;4798;41.574;23.734;2022-08-19T11:49:53;94755.34;;;42.67;18.99
9521;BME280;4798;41.574;23.734;2022-08-19T11:52:22;94781.66;;;42.86;18.34
9521;BME280;4798;41.574;23.734;2022-08-19T11:54:50;94780.19;;;43.47;17.25
9521;BME280;4798;41.574;23.734;2022-08-19T11:57:19;94757.03;;;42.59;17.76
9521;BME280;4798;41.574;23.734;2022-08-19T11:59:51;94770.50;;;42.86;19.30
9521;BME280;4798;41.574;23.734;2022-08-19T12:02:21;94768.56;;;43.54;17.66
9521;BME280;4798;41.574;23.734;2022-08-19T12:04:50;94749.44;;;43.42;17.73
9521;BME280;4798;41.574;23.734;2022-08-19T12:07:18;94755.78;;;42.60;18.88
9521;BME280;4798;41.574;23.734;2022-08-19T12:09:46;94747.53;;;43.28;17.81
9521;BME280;4798;41.574;23.734;2022-08-19T12:12:15;94729.19;;;42.18;18.47
9521;BME280;4798;41.574;23.734;2022-08-19T12:14:43;94754.16;;;43.67;17.91
9521;BME280;4798;41.574;23.734;2022-08-19T12:17:13;94743.56;;;44.13;17.65
9521;BME280;4798;41.574;23.734;2022-08-19T12:19:43;94742.22;;;44.03;17.17
9521;BME280;4798;41.574;23.734;2022-08-19T12:22:11;94743.50;;;43.66;17.42
9521;BME280;4798;41.574;23.734;2022-08-19T12:24:40;94745.84;;;43.36;18.24
9521;BME280;4798;41.574;23.734;2022-08-19T12:27:08;94739.84;;;43.17;17.99
9521;BME280;4798;41.574;23.734;2022-08-19T12:29:39;94741.56;;;42.37;19.61
9521;BME280;4798;41.574;23.734;2022-08-19T12:32:08;94733.22;;;42.37;18.63
9521;BME280;4798;41.574;23.734;2022-08-19T12:34:38;94735.69;;;42.76;19.68
9521;BME280;4798;41.574;23.734;2022-08-19T12:37:08;94733.06;;;42.92;18.98
9521;BME280;4798;41.574;23.734;2022-08-19T12:39:39;94737.75;;;42.81;17.87
9521;BME280;4798;41.574;23.734;2022-08-19T12:42:10;94733.75;;;43.13;19.38
9521;BME280;4798;41.574;23.734;2022-08-19T12:44:40;94725.31;;;42.82;18.67
9521;BME280;4798;41.574;23.734;2022-08-19T12:47:11;94724.28;;;42.33;19.32
9521;BME280;4798;41.574;23.734;2022-08-19T12:49:41;94721.41;;;41.33;20.69
9521;BME280;4798;41.574;23.734;2022-08-19T12:52:23;94715.25;;;41.43;20.96
9521;BME280;4798;41.574;23.734;2022-08-19T12:54:54;94727.34;;;41.95;19.30
9521;BME280;4798;41.574;23.734;2022-08-19T12:57:24;94724.00;;;42.52;19.10
9521;BME280;4798;41.574;23.734;2022-08-19T12:59:59;94722.97;;;41.89;19.46
9521;BME280;4798;41.574;23.734;2022-08-19T13:02:31;94716.84;;;41.50;19.92
9521;BME280;4798;41.574;23.734;2022-08-19T13:05:07;94657.09;;;40.37;20.66
9521;BME280;4798;41.574;23.734;2022-08-19T13:07:39;94701.03;;;40.10;21.23
9521;BME280;4798;41.574;23.734;2022-08-19T13:10:09;94705.50;;;41.18;20.18
9521;BME280;4798;41.574;23.734;2022-08-19T13:12:39;94708.44;;;41.44;19.60
9521;BME280;4798;41.574;23.734;2022-08-19T13:15:09;94714.78;;;41.65;20.50
9521;BME280;4798;41.574;23.734;2022-08-19T13:17:41;94715.00;;;42.16;19.20
9521;BME280;4798;41.574;23.734;2022-08-19T13:20:10;94716.56;;;42.23;18.97
9521;BME280;4798;41.574;23.734;2022-08-19T13:22:41;94713.84;;;41.88;19.82
9521;BME280;4798;41.574;23.734;2022-08-19T13:25:10;94720.03;;;41.43;19.97
9521;BME280;4798;41.574;23.734;2022-08-19T13:27:39;94691.19;;;41.60;20.40
9521;BME280;4798;41.574;23.734;2022-08-19T13:30:10;94712.72;;;42.00;19.72
9521;BME280;4798;41.574;23.734;2022-08-19T13:32:57;94709.06;;;42.09;19.78